Time;durP1;ratioP1;P1;durP2;ratioP2;P2;SDS_P1;SDS_P2;PMS_P1;PMS_P2;Temp;Humidity;BMP_temperature;BMP_pressure;BME280_temperature;BME280_humidity;BME280_pressure;Samples;Min_cycle;Max_cycle;Signal;HPM_P1;HPM_P2
2022/04/15 00:02:24;;;;;;;14.35;9.25;;;;;;;13.07;100.00;99963.03;4996397;28;20617;-83
2022/04/15 00:04:51;;;;;;;12.18;9.95;;;;;;;13.08;100.00;99962.06;5005828;28;20542;-83
2022/04/15 00:07:17;;;;;;;11.75;9.23;;;;;;;13.09;100.00;99966.53;5014387;28;20192;-83
2022/04/15 00:09:44;;;;;;;11.52;10.05;;;;;;;12.92;100.00;99959.44;5006134;28;20231;-83
2022/04/15 00:12:17;;;;;;;10.27;8.77;;;;;;;12.99;100.00;99962.63;5014312;28;20196;-84
2022/04/15 00:14:44;;;;;;;10.05;9.15;;;;;;;13.01;100.00;99959.84;4998603;28;20568;-83
2022/04/15 00:17:12;;;;;;;14.73;8.32;;;;;;;12.92;100.00;99961.28;5000081;28;20550;-82
2022/04/15 00:19:39;;;;;;;12.35;8.98;;;;;;;12.85;100.00;99959.94;5012028;28;20538;-83
2022/04/15 00:22:05;;;;;;;10.73;8.95;;;;;;;12.94;100.00;99962.06;4998104;28;20204;-83
2022/04/15 00:24:32;;;;;;;11.00;9.77;;;;;;;12.96;100.00;99954.75;4994855;28;20655;-83
2022/04/15 00:26:59;;;;;;;9.40;8.50;;;;;;;13.05;100.00;99954.16;4999216;28;20196;-83
2022/04/15 00:29:28;;;;;;;13.55;9.07;;;;;;;12.99;100.00;99949.13;4995297;28;20192;-83
2022/04/15 00:31:55;;;;;;;16.20;11.38;;;;;;;12.83;100.00;99954.63;4994604;28;20201;-84
2022/04/15 00:34:22;;;;;;;16.50;11.13;;;;;;;12.68;100.00;99952.84;4994935;28;20184;-84
2022/04/15 00:36:49;;;;;;;11.85;9.52;;;;;;;12.50;100.00;99954.84;4999396;28;20202;-84
2022/04/15 00:39:16;;;;;;;13.88;10.40;;;;;;;12.55;100.00;99958.16;4998426;28;20653;-83
2022/04/15 00:41:43;;;;;;;11.02;8.77;;;;;;;12.38;100.00;99961.00;4999047;28;20203;-83
2022/04/15 00:44:09;;;;;;;13.05;9.80;;;;;;;12.41;100.00;99961.66;5009677;28;20198;-83
2022/04/15 00:46:36;;;;;;;15.13;11.00;;;;;;;12.52;100.00;99963.72;5002812;28;20658;-84
2022/04/15 00:49:03;;;;;;;11.55;9.40;;;;;;;12.63;100.00;99963.09;5004224;28;20187;-83
2022/04/15 00:51:35;;;;;;;12.30;10.23;;;;;;;12.69;100.00;99965.41;5004663;28;20212;-83
2022/04/15 00:54:03;;;;;;;11.30;9.75;;;;;;;12.70;100.00;99956.34;4994265;28;20643;-84
2022/04/15 00:56:35;;;;;;;13.02;9.52;;;;;;;12.63;100.00;99950.44;4998128;28;20708;-84
2022/04/15 00:59:04;;;;;;;12.35;9.07;;;;;;;12.60;100.00;99956.03;5014025;28;20191;-83
2022/04/15 01:01:31;;;;;;;13.75;9.88;;;;;;;12.59;100.00;99954.28;5013929;28;20548;-83
2022/04/15 01:03:58;;;;;;;11.32;10.20;;;;;;;12.73;100.00;99957.03;5003706;28;20200;-84
2022/04/15 01:06:31;;;;;;;11.45;9.73;;;;;;;12.79;100.00;99963.88;4998341;28;20199;-82
2022/04/15 01:08:58;;;;;;;11.15;9.95;;;;;;;12.85;100.00;99959.94;4994470;28;20196;-83
2022/04/15 01:11:27;;;;;;;11.48;10.13;;;;;;;12.66;100.00;99960.19;5011518;28;20204;-83
2022/04/15 01:13:56;;;;;;;10.95;9.60;;;;;;;12.59;100.00;99967.78;5008319;28;20191;-83
2022/04/15 01:16:24;;;;;;;12.07;9.88;;;;;;;12.49;100.00;99970.19;4998654;28;20212;-83
2022/04/15 01:18:50;;;;;;;11.02;9.82;;;;;;;12.53;100.00;99973.59;4995286;28;20683;-83
2022/04/15 01:21:18;;;;;;;12.30;10.38;;;;;;;12.27;100.00;99970.59;5013665;28;20194;-83
2022/04/15 01:23:47;;;;;;;12.60;9.80;;;;;;;12.16;100.00;99973.06;5013237;28;20215;-83
2022/04/15 01:26:17;;;;;;;14.18;9.52;;;;;;;12.23;100.00;99968.16;5001357;28;20283;-83
2022/04/15 01:28:44;;;;;;;11.43;10.23;;;;;;;12.17;100.00;99971.25;4993816;28;20306;-84
2022/04/15 01:31:10;;;;;;;11.63;10.25;;;;;;;12.14;100.00;99971.41;5000487;28;20218;-83
2022/04/15 01:33:37;;;;;;;10.52;9.20;;;;;;;12.31;100.00;99972.16;5013175;28;20189;-83
2022/04/15 01:36:04;;;;;;;10.07;9.00;;;;;;;12.19;100.00;99975.59;5009842;28;20188;-83
2022/04/15 01:38:31;;;;;;;12.40;9.82;;;;;;;12.10;100.00;99976.13;5011492;28;20654;-83
2022/04/15 01:40:59;;;;;;;11.05;9.10;;;;;;;12.02;100.00;99981.09;5007011;28;20204;-83
2022/04/15 01:43:26;;;;;;;10.80;9.05;;;;;;;11.96;100.00;99976.03;5011669;28;20202;-83
2022/04/15 01:45:52;;;;;;;14.55;9.93;;;;;;;11.88;100.00;99973.81;5004977;28;20191;-83
2022/04/15 01:48:19;;;;;;;15.23;11.07;;;;;;;11.84;100.00;99977.59;5012874;28;20198;-83
2022/04/15 01:50:46;;;;;;;10.93;9.82;;;;;;;11.93;100.00;99976.22;5012525;28;20223;-83
2022/04/15 01:53:13;;;;;;;11.23;9.38;;;;;;;11.98;100.00;99971.44;5009309;28;20659;-83
2022/04/15 01:55:39;;;;;;;10.15;9.13;;;;;;;11.89;100.00;99972.81;4997716;28;20277;-83
2022/04/15 01:58:07;;;;;;;12.38;8.52;;;;;;;11.77;100.00;99966.28;4999306;28;20200;-83
2022/04/15 02:00:34;;;;;;;15.35;9.65;;;;;;;11.70;100.00;99967.59;4993046;28;20573;-83
2022/04/15 02:03:00;;;;;;;12.18;10.00;;;;;;;11.74;100.00;99973.69;5001200;28;20622;-83
2022/04/15 02:05:27;;;;;;;13.00;10.10;;;;;;;11.61;100.00;99965.41;4996853;28;20554;-83
2022/04/15 02:07:54;;;;;;;12.80;10.55;;;;;;;11.54;100.00;99967.59;5011683;28;20183;-84
2022/04/15 02:10:20;;;;;;;12.27;11.00;;;;;;;11.39;100.00;99973.84;5000472;28;20223;-83
2022/04/15 02:12:47;;;;;;;15.68;12.70;;;;;;;11.27;100.00;99975.38;5011033;28;20190;-82
2022/04/15 02:15:15;;;;;;;15.18;12.48;;;;;;;11.31;100.00;99978.81;4994669;28;20190;-83
2022/04/15 02:17:41;;;;;;;12.05;10.57;;;;;;;11.30;100.00;99977.91;5012511;28;20563;-83
2022/04/15 02:20:10;;;;;;;13.00;11.60;;;;;;;11.36;100.00;99976.72;4995001;28;20222;-83
2022/04/15 02:22:37;;;;;;;12.55;11.00;;;;;;;11.42;100.00;99971.84;5000262;28;20195;-83
2022/04/15 02:25:04;;;;;;;12.48;11.20;;;;;;;11.56;100.00;99981.00;5005554;28;20242;-83
2022/04/15 02:27:30;;;;;;;15.15;10.57;;;;;;;11.58;100.00;99971.00;4992411;28;20184;-83
2022/04/15 02:29:57;;;;;;;11.77;10.55;;;;;;;11.65;100.00;99977.78;4993045;28;20191;-83
2022/04/15 02:32:25;;;;;;;13.18;10.85;;;;;;;11.64;100.00;99984.97;5011877;28;20203;-83
2022/04/15 02:34:52;;;;;;;14.20;11.15;;;;;;;11.51;100.00;99977.66;5007532;28;20202;-83
2022/04/15 02:37:19;;;;;;;16.58;11.93;;;;;;;11.44;100.00;99978.03;5012237;28;20193;-83
2022/04/15 02:39:45;;;;;;;12.80;11.50;;;;;;;11.43;100.00;99983.50;5002245;28;20195;-83
2022/04/15 02:42:12;;;;;;;15.40;12.13;;;;;;;11.24;100.00;99989.91;4998696;28;20188;-83
2022/04/15 02:44:39;;;;;;;13.15;11.65;;;;;;;11.15;100.00;99987.72;4992612;28;20187;-83
2022/04/15 02:47:06;;;;;;;13.55;10.75;;;;;;;11.06;100.00;99986.38;4992527;28;20607;-83
2022/04/15 02:49:34;;;;;;;13.18;11.77;;;;;;;10.89;100.00;99983.72;5006425;28;20404;-83
2022/04/15 02:52:01;;;;;;;15.43;11.13;;;;;;;10.95;100.00;99988.78;5000146;28;20199;-83
2022/04/15 02:54:27;;;;;;;15.40;12.60;;;;;;;10.92;100.00;99988.06;5012090;28;20226;-83
2022/04/15 02:56:54;;;;;;;15.90;12.52;;;;;;;10.83;100.00;99986.72;5011663;28;20760;-83
2022/04/15 02:59:21;;;;;;;20.10;12.30;;;;;;;10.82;100.00;99998.47;5010006;28;20471;-83
2022/04/15 03:01:48;;;;;;;12.82;11.20;;;;;;;10.79;100.00;99993.25;5011605;28;20641;-84
2022/04/15 03:04:14;;;;;;;13.25;11.77;;;;;;;10.71;100.00;99995.47;5006249;28;20282;-83
2022/04/15 03:06:42;;;;;;;14.85;12.50;;;;;;;10.68;100.00;99998.34;4997130;28;20194;-83
2022/04/15 03:09:09;;;;;;;17.08;12.75;;;;;;;10.57;100.00;100002.44;5007632;28;20207;-83
2022/04/15 03:11:38;;;;;;;14.38;12.65;;;;;;;10.58;100.00;99993.44;4997480;28;20290;-82
2022/04/15 03:14:05;;;;;;;15.45;13.73;;;;;;;10.65;100.00;99996.69;4995724;28;20202;-82
2022/04/15 03:16:32;;;;;;;13.30;11.85;;;;;;;10.66;100.00;99998.41;5009447;28;20304;-83
2022/04/15 03:18:59;;;;;;;15.18;11.98;;;;;;;10.79;100.00;99988.72;5015338;28;20187;-83
2022/04/15 03:21:25;;;;;;;15.45;12.35;;;;;;;10.74;100.00;99987.22;5007154;28;20205;-82
2022/04/15 03:23:54;;;;;;;13.15;11.68;;;;;;;10.73;100.00;99988.19;5006706;28;20545;-84
2022/04/15 03:26:21;;;;;;;14.82;13.32;;;;;;;10.76;100.00;99988.00;5004081;28;20201;-84
2022/04/15 03:28:48;;;;;;;13.43;11.98;;;;;;;10.92;100.00;99982.69;5003134;28;20194;-83
2022/04/15 03:31:14;;;;;;;14.27;12.77;;;;;;;10.77;100.00;99985.25;4995796;28;20227;-83
2022/04/15 03:33:41;;;;;;;14.93;13.05;;;;;;;10.65;100.00;99991.28;5006449;28;20278;-83
2022/04/15 03:36:08;;;;;;;18.60;13.30;;;;;;;10.51;100.00;99989.28;5009879;28;20703;-83
2022/04/15 03:38:35;;;;;;;14.10;12.70;;;;;;;10.44;100.00;99995.94;5001555;28;20201;-83
2022/04/15 03:41:03;;;;;;;16.25;13.55;;;;;;;10.61;100.00;100001.34;5006897;28;20531;-83
2022/04/15 03:43:30;;;;;;;17.35;12.95;;;;;;;10.80;100.00;99997.69;4995600;28;20219;-83
2022/04/15 03:45:57;;;;;;;17.83;13.25;;;;;;;10.74;100.00;100006.06;4996586;28;20198;-83
2022/04/15 03:48:25;;;;;;;17.50;13.60;;;;;;;10.66;100.00;100008.31;5006458;28;20202;-83
2022/04/15 03:50:52;;;;;;;17.02;13.73;;;;;;;10.39;100.00;100006.09;4995936;28;20695;-83
2022/04/15 03:53:19;;;;;;;18.90;13.45;;;;;;;10.43;100.00;100005.84;4999155;28;20247;-82
2022/04/15 03:55:46;;;;;;;15.52;12.90;;;;;;;10.44;100.00;100004.03;5012598;28;20601;-83
2022/04/15 03:58:16;;;;;;;17.75;12.48;;;;;;;10.43;100.00;100013.06;4998976;28;20201;-82
2022/04/15 04:00:42;;;;;;;16.88;13.80;;;;;;;10.44;100.00;100015.66;5012974;28;20622;-82
2022/04/15 04:03:09;;;;;;;15.63;13.00;;;;;;;10.30;100.00;100015.50;4997798;28;20202;-83
2022/04/15 04:05:36;;;;;;;16.25;13.00;;;;;;;10.23;100.00;100014.91;5013509;28;20187;-82
2022/04/15 04:08:02;;;;;;;15.65;13.30;;;;;;;10.21;100.00;100018.63;4997043;28;20223;-82
2022/04/15 04:10:29;;;;;;;16.75;13.50;;;;;;;10.23;100.00;100020.28;5007516;28;20191;-82
2022/04/15 04:12:55;;;;;;;14.35;12.85;;;;;;;10.31;100.00;100017.25;4997921;28;20196;-82
2022/04/15 04:15:23;;;;;;;16.40;13.00;;;;;;;10.27;100.00;100023.69;4995119;28;20191;-82
2022/04/15 04:17:50;;;;;;;15.25;13.60;;;;;;;10.27;100.00;100026.38;5013619;28;20186;-83
2022/04/15 04:20:17;;;;;;;16.65;12.85;;;;;;;10.42;100.00;100027.44;5014149;28;20217;-82
2022/04/15 04:22:44;;;;;;;17.55;13.80;;;;;;;10.40;100.00;100027.56;4999808;28;20194;-83
2022/04/15 04:25:11;;;;;;;14.38;12.48;;;;;;;10.45;100.00;100024.63;4994729;28;20190;-83
2022/04/15 04:27:38;;;;;;;16.77;14.40;;;;;;;10.52;100.00;100028.75;5006529;28;20205;-82
2022/04/15 04:30:06;;;;;;;15.52;13.70;;;;;;;10.39;100.00;100028.47;5014464;28;20545;-83
2022/04/15 04:32:35;;;;;;;13.70;12.25;;;;;;;10.28;100.00;100033.50;4997705;28;20566;-83
2022/04/15 04:35:02;;;;;;;20.70;13.40;;;;;;;10.12;100.00;100028.00;4994721;28;20352;-83
2022/04/15 04:37:28;;;;;;;16.58;13.65;;;;;;;10.08;100.00;100030.94;5009663;28;20667;-82
2022/04/15 04:39:55;;;;;;;16.90;13.48;;;;;;;10.13;100.00;100031.56;4998201;28;20203;-82
2022/04/15 04:42:23;;;;;;;14.27;12.77;;;;;;;10.23;100.00;100033.72;5001364;28;20193;-83
2022/04/15 04:44:50;;;;;;;16.20;14.13;;;;;;;10.31;100.00;100030.72;5008823;28;20193;-82
2022/04/15 04:47:18;;;;;;;16.02;13.43;;;;;;;10.40;100.00;100038.31;5000073;28;20203;-82
2022/04/15 04:49:46;;;;;;;15.52;12.95;;;;;;;10.52;100.00;100044.03;4996366;28;20203;-83
2022/04/15 04:52:12;;;;;;;15.90;13.55;;;;;;;10.50;100.00;100044.09;4994356;28;20203;-82
2022/04/15 04:54:39;;;;;;;15.27;13.63;;;;;;;10.29;100.00;100048.75;5007227;28;20198;-82
2022/04/15 04:57:06;;;;;;;16.73;12.68;;;;;;;10.13;100.00;100051.28;5006375;28;20231;-83
2022/04/15 04:59:33;;;;;;;18.33;14.73;;;;;;;10.32;100.00;100053.09;5013862;28;20542;-82
2022/04/15 05:02:00;;;;;;;14.95;12.90;;;;;;;10.33;100.00;100053.00;5013506;28;20253;-82
2022/04/15 05:04:29;;;;;;;14.07;12.70;;;;;;;10.24;100.00;100058.81;5000151;28;20655;-83
2022/04/15 05:06:57;;;;;;;14.80;12.85;;;;;;;10.30;100.00;100052.31;4997100;28;20282;-82
2022/04/15 05:09:23;;;;;;;14.52;12.25;;;;;;;10.38;100.00;100059.06;4998051;28;20201;-82
2022/04/15 05:11:51;;;;;;;16.98;14.45;;;;;;;10.26;100.00;100065.00;4997177;28;20298;-82
2022/04/15 05:14:18;;;;;;;14.93;13.32;;;;;;;10.20;100.00;100068.88;4993853;28;20595;-83
2022/04/15 05:16:45;;;;;;;15.45;13.48;;;;;;;10.33;100.00;100062.91;4999333;28;20544;-83
2022/04/15 05:19:12;;;;;;;17.05;14.98;;;;;;;10.51;100.00;100072.75;4993754;28;20611;-83
2022/04/15 05:21:38;;;;;;;15.75;13.20;;;;;;;10.43;100.00;100066.91;4993764;28;20282;-83
2022/04/15 05:24:07;;;;;;;14.73;13.23;;;;;;;10.28;100.00;100070.31;4993266;28;20180;-81
2022/04/15 05:26:34;;;;;;;17.80;14.57;;;;;;;10.22;100.00;100074.16;5002885;28;20195;-83
2022/04/15 05:29:01;;;;;;;24.15;15.88;;;;;;;10.25;100.00;100084.81;5003090;28;20196;-83
2022/04/15 05:31:28;;;;;;;20.08;14.00;;;;;;;10.25;100.00;100075.88;4994863;28;20555;-82
2022/04/15 05:33:54;;;;;;;16.88;14.07;;;;;;;10.31;100.00;100078.25;5001975;28;20671;-84
2022/04/15 05:36:21;;;;;;;16.35;14.65;;;;;;;10.56;100.00;100072.53;5002600;28;20202;-83
2022/04/15 05:38:47;;;;;;;16.17;14.40;;;;;;;10.68;100.00;100082.69;5012319;28;20205;-82
2022/04/15 05:41:15;;;;;;;18.38;14.80;;;;;;;10.61;100.00;100074.03;5002971;28;20201;-82
2022/04/15 05:43:43;;;;;;;16.30;14.25;;;;;;;10.58;100.00;100087.69;5012787;28;20653;-83
2022/04/15 05:46:09;;;;;;;21.25;14.50;;;;;;;10.65;100.00;100088.25;5006157;28;20222;-83
2022/04/15 05:48:36;;;;;;;16.70;14.40;;;;;;;10.68;100.00;100080.00;4999108;28;20186;-83
2022/04/15 05:51:03;;;;;;;17.20;15.23;;;;;;;10.56;100.00;100086.88;5012657;28;20222;-83
2022/04/15 05:53:29;;;;;;;18.45;15.35;;;;;;;10.61;100.00;100092.91;5006865;28;20212;-83
2022/04/15 05:55:57;;;;;;;15.77;13.80;;;;;;;10.68;100.00;100095.28;4997719;28;20230;-83
2022/04/15 05:58:25;;;;;;;16.48;14.35;;;;;;;10.79;100.00;100088.41;4993077;28;20211;-82
2022/04/15 06:00:52;;;;;;;19.65;14.50;;;;;;;10.88;100.00;100097.84;4992979;28;20195;-83
2022/04/15 06:03:20;;;;;;;18.15;14.10;;;;;;;11.05;100.00;100087.03;5000146;28;20854;-83
2022/04/15 06:05:46;;;;;;;16.42;14.52;;;;;;;10.96;100.00;100094.72;5007050;28;20194;-83
2022/04/15 06:08:13;;;;;;;17.23;13.23;;;;;;;11.07;100.00;100106.69;4992496;28;20207;-82
2022/04/15 06:10:40;;;;;;;16.85;14.60;;;;;;;11.32;100.00;100108.09;4998540;28;20191;-83
2022/04/15 06:13:09;;;;;;;15.27;13.18;;;;;;;11.36;100.00;100092.66;5010872;28;20302;-82
2022/04/15 06:15:41;;;;;;;15.45;13.75;;;;;;;11.22;100.00;100109.56;5002173;28;20199;-82
2022/04/15 06:18:08;;;;;;;16.60;14.15;;;;;;;11.29;100.00;100108.28;4992322;28;20227;-82
2022/04/15 06:20:35;;;;;;;15.95;14.25;;;;;;;11.46;100.00;100101.97;5002304;28;20194;-83
2022/04/15 06:23:01;;;;;;;16.88;13.10;;;;;;;11.75;100.00;100111.19;5009951;28;20206;-83
2022/04/15 06:25:28;;;;;;;15.57;14.02;;;;;;;12.00;100.00;100112.56;5004107;28;20195;-82
2022/04/15 06:27:55;;;;;;;15.73;12.63;;;;;;;12.07;100.00;100117.53;5012147;28;20552;-82
2022/04/15 06:30:21;;;;;;;15.00;13.50;;;;;;;12.22;100.00;100115.78;5000375;28;20199;-83
2022/04/15 06:32:49;;;;;;;15.38;12.95;;;;;;;12.27;100.00;100116.38;5008800;28;20218;-83
2022/04/15 06:35:16;;;;;;;17.85;15.52;;;;;;;12.39;100.00;100119.34;5012476;28;20668;-83
2022/04/15 06:37:42;;;;;;;15.50;13.93;;;;;;;12.48;100.00;100119.72;5011869;28;20262;-82
2022/04/15 06:40:10;;;;;;;15.88;13.60;;;;;;;12.77;100.00;100119.81;5012323;28;20191;-82
2022/04/15 06:42:37;;;;;;;18.25;14.18;;;;;;;12.73;100.00;100113.75;5008988;28;20214;-82
2022/04/15 06:45:05;;;;;;;20.52;14.57;;;;;;;12.76;100.00;100114.53;4993033;28;20212;-83
2022/04/15 06:47:31;;;;;;;16.10;14.35;;;;;;;12.95;100.00;100120.56;4992427;28;20522;-82
2022/04/15 06:50:00;;;;;;;14.38;12.98;;;;;;;13.02;100.00;100121.94;4994770;28;20616;-82
2022/04/15 06:52:26;;;;;;;18.02;14.95;;;;;;;13.23;100.00;100117.09;5001980;28;20212;-82
2022/04/15 06:54:53;;;;;;;16.77;15.05;;;;;;;12.98;100.00;100119.50;4998710;28;20191;-82
2022/04/15 06:57:20;;;;;;;17.08;13.68;;;;;;;12.80;100.00;100125.06;5013782;28;20190;-83
2022/04/15 06:59:46;;;;;;;20.17;18.10;;;;;;;13.02;100.00;100121.94;5015960;28;20207;-83
2022/04/15 07:02:13;;;;;;;20.02;17.02;;;;;;;12.86;100.00;100123.81;5015167;28;20200;-83
2022/04/15 07:04:39;;;;;;;18.67;16.33;;;;;;;13.15;100.00;100128.34;5015736;28;20722;-83
2022/04/15 07:07:07;;;;;;;20.42;17.30;;;;;;;13.10;100.00;100129.59;5015939;28;21040;-82
2022/04/15 07:09:34;;;;;;;19.83;16.60;;;;;;;13.13;100.00;100135.66;5015824;28;20192;-82
2022/04/15 07:12:01;;;;;;;19.67;16.60;;;;;;;13.37;100.00;100131.63;5015423;28;20216;-83
2022/04/15 07:14:29;;;;;;;20.88;17.60;;;;;;;13.25;100.00;100130.50;5015828;28;20197;-81
2022/04/15 07:16:55;;;;;;;20.75;18.50;;;;;;;13.76;100.00;100141.81;5015539;28;20680;-83
2022/04/15 07:19:23;;;;;;;17.05;14.68;;;;;;;14.20;100.00;100138.13;5015658;28;20193;-83
2022/04/15 07:21:49;;;;;;;18.77;15.88;;;;;;;14.28;100.00;100141.19;5015248;28;20283;-83
2022/04/15 07:24:17;;;;;;;16.83;14.43;;;;;;;14.71;100.00;100134.81;5015476;28;20694;-82
2022/04/15 07:26:44;;;;;;;17.02;15.23;;;;;;;15.05;98.27;100141.53;5015004;28;20200;-83
2022/04/15 07:29:10;;;;;;;18.67;15.77;;;;;;;15.21;97.04;100138.63;5015019;28;20193;-82
2022/04/15 07:31:37;;;;;;;16.55;14.20;;;;;;;15.36;95.03;100134.00;5014926;28;20293;-81
2022/04/15 07:34:04;;;;;;;16.70;15.00;;;;;;;15.43;94.67;100140.75;5006735;28;20206;-75
2022/04/15 07:36:43;;;;;;;18.65;15.65;;;;;;;15.49;93.87;100143.03;4996019;28;20982;-75
2022/04/15 07:39:11;;;;;;;18.83;16.60;;;;;;;15.24;97.00;100143.88;4996147;28;20210;-74
2022/04/15 07:41:40;;;;;;;22.40;17.67;;;;;;;14.93;100.00;100139.66;5012861;28;20742;-75
2022/04/15 07:44:08;;;;;;;19.85;16.10;;;;;;;15.47;95.76;100145.00;4995201;28;20283;-75
2022/04/15 07:46:35;;;;;;;23.85;19.38;;;;;;;15.22;96.73;100141.25;4995523;28;20225;-75
2022/04/15 07:49:03;;;;;;;21.27;17.23;;;;;;;15.23;98.98;100137.56;4995193;28;20202;-74
2022/04/15 07:51:30;;;;;;;23.42;17.95;;;;;;;15.64;94.20;100157.34;4995171;28;20207;-75
2022/04/15 07:53:57;;;;;;;24.88;18.50;;;;;;;15.92;93.40;100139.13;4997995;28;20646;-75
2022/04/15 07:56:23;;;;;;;20.67;18.48;;;;;;;16.61;87.26;100143.09;4992827;28;20227;-75
2022/04/15 07:58:51;;;;;;;31.23;20.92;;;;;;;16.79;85.01;100140.00;4995419;28;20188;-75
2022/04/15 08:01:18;;;;;;;31.42;20.63;;;;;;;17.44;79.76;100144.97;5013105;28;20701;-75
2022/04/15 08:03:46;;;;;;;22.90;20.15;;;;;;;17.74;78.53;100145.41;5014519;28;20206;-75
2022/04/15 08:06:13;;;;;;;22.70;19.20;;;;;;;17.87;75.75;100138.91;4995173;28;20283;-75
2022/04/15 08:08:40;;;;;;;24.85;20.92;;;;;;;17.60;77.80;100151.97;4994762;28;20193;-75
2022/04/15 08:11:07;;;;;;;27.42;21.33;;;;;;;17.66;77.15;100151.44;4995274;28;20642;-75
2022/04/15 08:13:33;;;;;;;24.77;21.42;;;;;;;17.66;77.18;100151.44;4995168;28;20219;-75
2022/04/15 08:16:03;;;;;;;23.85;20.73;;;;;;;17.97;75.32;100149.91;4994593;28;20299;-75
2022/04/15 08:18:30;;;;;;;27.67;20.27;;;;;;;18.23;73.13;100147.81;4995224;28;20188;-75
2022/04/15 08:20:57;;;;;;;24.00;20.95;;;;;;;18.33;72.59;100142.47;4996596;28;20193;-75
2022/04/15 08:23:23;;;;;;;26.33;22.55;;;;;;;18.32;72.26;100149.78;4995091;28;20188;-75
2022/04/15 08:25:50;;;;;;;30.77;22.15;;;;;;;17.89;74.56;100153.25;4994830;28;20304;-75
2022/04/15 08:28:17;;;;;;;24.98;20.42;;;;;;;17.64;75.91;100148.88;4999226;28;20198;-75
2022/04/15 08:30:43;;;;;;;26.85;22.55;;;;;;;17.82;76.39;100146.56;5014073;28;20298;-74
2022/04/15 08:33:11;;;;;;;27.33;23.10;;;;;;;18.18;73.24;100151.88;5013919;28;20205;-74
2022/04/15 08:35:38;;;;;;;26.20;20.45;;;;;;;18.29;72.05;100147.31;5014343;28;20702;-74
2022/04/15 08:38:05;;;;;;;26.23;21.55;;;;;;;18.20;72.84;100145.31;5010237;28;20224;-74
2022/04/15 08:40:35;;;;;;;25.52;21.92;;;;;;;18.40;70.80;100143.69;5006919;28;20196;-75
2022/04/15 08:43:03;;;;;;;26.67;22.75;;;;;;;18.58;69.50;100146.75;4994545;28;20195;-75
2022/04/15 08:45:31;;;;;;;23.63;20.65;;;;;;;18.77;67.98;100151.59;4994001;28;20194;-75
2022/04/15 08:48:00;;;;;;;24.67;21.80;;;;;;;18.92;65.76;100155.75;4994432;28;20216;-74
2022/04/15 08:50:29;;;;;;;25.17;20.67;;;;;;;18.57;66.75;100144.19;4994519;28;20207;-75
2022/04/15 08:52:57;;;;;;;25.38;22.67;;;;;;;18.64;67.10;100145.41;4994282;28;20214;-75
2022/04/15 08:55:25;;;;;;;24.77;21.83;;;;;;;18.79;66.55;100148.72;5007225;28;20233;-75
2022/04/15 08:57:52;;;;;;;25.30;21.35;;;;;;;19.04;65.52;100144.78;5013848;28;20271;-74
2022/04/15 09:00:20;;;;;;;24.13;18.80;;;;;;;19.33;62.94;100145.03;5011539;28;20212;-75
2022/04/15 09:02:47;;;;;;;25.77;21.08;;;;;;;19.20;63.50;100153.44;5013752;28;20231;-75
2022/04/15 09:05:18;;;;;;;28.13;20.67;;;;;;;19.20;63.29;100149.81;5013361;28;20201;-75
2022/04/15 09:07:47;;;;;;;25.02;19.25;;;;;;;19.45;62.17;100160.38;5013288;28;20201;-74
2022/04/15 09:10:15;;;;;;;22.60;17.95;;;;;;;19.41;54.70;100160.78;5003822;28;20194;-75
2022/04/15 09:12:45;;;;;;;21.83;18.00;;;;;;;19.57;53.20;100155.72;4994031;28;20235;-74
2022/04/15 09:15:15;;;;;;;25.23;18.70;;;;;;;19.87;51.23;100160.38;4996923;28;20452;-75
2022/04/15 09:17:46;;;;;;;26.90;16.40;;;;;;;19.73;52.65;100160.72;4993753;28;20183;-75
2022/04/15 09:20:13;;;;;;;20.10;15.97;;;;;;;19.97;50.72;100155.84;4993794;28;20454;-76
2022/04/15 09:22:39;;;;;;;18.60;14.87;;;;;;;20.67;50.85;100150.53;4993745;28;20780;-74
2022/04/15 09:25:10;;;;;;;22.27;16.00;;;;;;;20.48;52.75;100154.00;4997197;28;20450;-75
2022/04/15 09:27:36;;;;;;;21.00;14.83;;;;;;;20.89;47.00;100154.84;4994621;28;20445;-77
2022/04/15 09:30:05;;;;;;;17.23;14.93;;;;;;;20.30;48.88;100156.53;5009303;28;20449;-74
2022/04/15 09:32:31;;;;;;;19.63;15.13;;;;;;;20.65;56.78;100154.41;5004958;28;20469;-75
2022/04/15 09:35:00;;;;;;;15.93;14.30;;;;;;;20.87;47.79;100158.75;5006974;28;20434;-74
2022/04/15 09:37:30;;;;;;;19.10;15.07;;;;;;;20.13;51.24;100165.41;4993656;28;20798;-73
2022/04/15 09:40:05;;;;;;;20.73;15.73;;;;;;;19.84;65.01;100168.84;4994663;28;20459;-73
2022/04/15 09:42:35;;;;;;;16.73;15.03;;;;;;;20.23;52.33;100168.19;4993066;28;20488;-75
2022/04/15 09:45:12;;;;;;;19.53;16.10;;;;;;;20.46;48.48;100166.97;5000701;28;20479;-74
2022/04/15 09:47:39;;;;;;;20.07;15.20;;;;;;;20.70;57.20;100165.78;4993521;28;20441;-75
2022/04/15 09:50:08;;;;;;;20.90;16.27;;;;;;;20.60;52.46;100169.38;4994078;28;20457;-75
2022/04/15 09:52:52;;;;;;;22.13;15.50;;;;;;;20.94;55.22;100154.44;5014618;28;20499;-75
2022/04/15 09:55:21;;;;;;;23.50;15.13;;;;;;;21.11;54.59;100161.09;5003996;28;20481;-75
2022/04/15 09:57:49;;;;;;;22.60;14.90;;;;;;;20.82;58.27;100161.91;4999494;28;20449;-75
2022/04/15 10:00:19;;;;;;;23.27;15.40;;;;;;;20.30;56.57;100156.53;5012854;28;20956;-76
2022/04/15 10:02:47;;;;;;;18.30;14.57;;;;;;;20.03;53.84;100154.41;5012247;28;20552;-75
2022/04/15 10:05:15;;;;;;;18.13;14.73;;;;;;;19.82;52.80;100161.78;5013162;28;20820;-75
2022/04/15 10:07:42;;;;;;;17.30;14.07;;;;;;;19.63;50.53;100157.91;5010990;28;21332;-75
2022/04/15 10:10:10;;;;;;;15.20;13.33;;;;;;;19.87;52.84;100154.06;5012854;28;20422;-75
2022/04/15 10:12:39;;;;;;;16.73;14.40;;;;;;;19.96;49.63;100150.50;5012436;28;20456;-75
2022/04/15 10:15:10;;;;;;;14.90;13.40;;;;;;;19.70;49.36;100159.13;5000678;28;20460;-75
2022/04/15 10:17:39;;;;;;;16.13;13.40;;;;;;;19.93;47.88;100151.66;4992748;28;20438;-74
2022/04/15 10:20:07;;;;;;;15.15;13.23;;;;;;;19.48;49.93;100148.31;4992620;28;20458;-82
2022/04/15 10:22:36;;;;;;;16.23;13.27;;;;;;;20.16;47.81;100152.31;4992470;28;20262;-82
2022/04/15 10:25:04;;;;;;;19.60;14.90;;;;;;;20.05;48.80;100143.34;5003714;28;20434;-83
2022/04/15 10:27:31;;;;;;;15.70;14.10;;;;;;;19.97;48.19;100146.78;5011786;28;20238;-82
2022/04/15 10:30:01;;;;;;;17.57;13.80;;;;;;;20.15;47.42;100141.53;5008473;28;20449;-83
2022/04/15 10:32:29;;;;;;;15.20;13.23;;;;;;;20.50;46.28;100152.00;5009963;28;20448;-83
2022/04/15 10:34:59;;;;;;;14.00;12.50;;;;;;;20.61;nan;100137.41;4994281;28;20449;-83
2022/04/15 10:37:57;;;;;;;14.60;13.10;;;;;;;21.00;44.75;100138.28;4992138;28;20438;-81
2022/04/15 10:40:27;;;;;;;14.33;10.37;;;;;;;20.67;44.76;100131.38;4960025;28;20979;-82
2022/04/15 10:42:53;;;;;;;11.23;10.10;;;;;;;20.40;45.60;100135.56;4993801;28;20431;-81
2022/04/15 10:45:28;;;;;;;13.07;10.87;;;;;;;20.44;45.20;100140.75;4991909;28;20449;-83
2022/04/15 10:47:59;;;;;;;13.30;11.30;;;;;;;20.19;45.53;100127.47;4992229;28;20971;-82
2022/04/15 10:50:28;;;;;;;12.03;10.50;;;;;;;20.29;45.41;100132.09;4992428;28;20454;-84
2022/04/15 10:53:19;;;;;;;10.13;9.13;;;;;;;20.40;45.66;100134.72;5001538;28;20500;-83
2022/04/15 10:55:48;;;;;;;11.03;8.80;;;;;;;19.91;46.45;100137.25;5011270;28;20477;-83
2022/04/15 10:58:16;;;;;;;9.53;8.60;;;;;;;19.59;46.90;100134.59;4994805;28;20450;-83
2022/04/15 11:03:31;;;;;;;9.02;8.10;;;;;;;20.22;45.65;100134.50;4991955;28;20405;-82
2022/04/15 11:06:00;;;;;;;9.23;6.70;;;;;;;21.18;43.15;100127.50;4991606;28;20199;-82
2022/04/15 11:08:27;;;;;;;8.53;6.80;;;;;;;21.88;41.17;100120.94;4992588;28;20533;-82
2022/04/15 11:11:03;;;;;;;7.77;6.97;;;;;;;21.89;40.96;100118.03;5000926;28;20546;-82
2022/04/15 11:14:03;;;;;;;7.60;6.40;;;;;;;21.69;41.10;100124.59;5009801;28;21307;-82
2022/04/15 11:16:40;;;;;;;8.17;7.37;;;;;;;21.15;42.50;100119.56;4991544;28;20458;-80